Tomah, Wisconsin
Current Conditions -  °F | °C
As of 4:35 AM on Sunday 21 Dec 2014 (Local Time) from KCMY Reporting Station
Haze Haze  
Wind Chill: 24°   Ceiling: 1000
Heat Index: 31°   Visibility: 4mi
Dew Point: 29°   Wind: 7mph
Humidity: 92%   Direction: 140°SE
Pressure: 30.09"   Gusts: NA
Location:  43.97°N, 90.5°W
Report Text: KCMY 211035Z AUTO 14006KT 4SM BR OVC010 00/M02 A3009 RMK AO2 T10051017
Loading
Personal Weather Stations






























Interactive Weather Map New forecast layout! Learn more

10-Day Weather Forecast

Advertisements
Track Severe Weather on mobile